Terminal Aerodrome Forecast
Issued by NWS

Home | Current Version | Previous Version | Text Only | Print | Product List | Glossary Off
Versions: 1 2 3 4 5 6 7 8 9 10 11 12 13 14 15

072
FTUS43 KBIS 171722
TAFDIK
TAF
KDIK 171722Z 1718/1818 27021G29KT P6SM SKC
     FM180000 26015KT P6SM SKC
     FM180500 24012KT P6SM BKN250=

USA.gov is the U.S. government's official web portal to all federal, state and local government web resources and services.